• Join FlightAware (Why Join?)
  • Login
  • US Flag 
06:04PM EST


 

Airport Tracker/Info


-or-


 

Live Flight TrackerFlight Track Log ✈ VNR160 ✈ 28-Apr-2013 ✈ KTUS - KSDL

Flight Track Log - Related Links

Times and Time Zones

All times are in EDT time to prevent confusion due to time zone crossing. See the VNR160 flight status page for this flight to view local times or setup timezone preferences in your user account.

Time Position Orientation Groundspeed Altitude Reporting Facility
EDT Latitude Longitude Course Direction KTS MPH feet Rate Location/Type
01:21AM 32.1314 -110.9575 347° North 148 170 3,400  Level Albuquerque Center
01:22AM 32.1525 -110.9894 308° West 162 186 5,000 1,920 Climbing Albuquerque Center
01:23AM 32.1731 -110.9961 345° North 166 191 5,900 2,160 Climbing Albuquerque Center
01:24AM 32.2236 -111.0042 352° North 177 204 8,200 1,980 Climbing Albuquerque Center
01:25AM 32.2819 -111.0067 358° North 198 228 10,000 900 Climbing Albuquerque Center
01:26AM 32.3567 -111.0144 355° North 256 295 10,100  Climbing Albuquerque Center
01:27AM 32.3776 -110.9840 347° North  Level FlightAware Approximate
01:27AM 32.4375 -111.0228 355° North 281 323 10,100  Level Albuquerque Center
01:28AM 32.5225 -111.0308 355° North 294 338 10,100  Level Albuquerque Center
01:29AM 32.6078 -111.0486 350° North 304 350 10,100 -60 Level Albuquerque Center
01:30AM 32.6867 -111.0764 343° North 301 346 10,000 -60 Descending Albuquerque Center
01:31AM 32.7669 -111.1003 346° North 299 344 10,000 -300 Level Albuquerque Center
01:32AM 32.8239 -111.1733 313° West 302 348 9,500 -540 Descending Albuquerque Center
01:33AM 32.8800 -111.2444 313° West 296 341 9,000 -300 Descending Albuquerque Center
01:34AM 32.9333 -111.3125 313° West 284 327 9,000 -60 Level Albuquerque Center
01:35AM 32.9864 -111.3806 313° West 281 323 8,900 -420 Descending Albuquerque Center
01:36AM 33.0189 -111.4664 294° West 283 326 8,200 -900 Descending Albuquerque Center
01:37AM 33.0453 -111.5536 290° West 280 322 7,200 -1,020 Descending Albuquerque Center
01:38AM 33.0717 -111.6400 290° West 277 319 6,200 -660 Descending Albuquerque Center
01:39AM 33.0983 -111.7258 290° West 276 318 5,900 -180 Descending Albuquerque Center
01:40AM 33.1267 -111.8069 293° West 269 310 5,900 -540 Level Albuquerque Center
01:41AM 33.1867 -111.8583 324° Northwest 264 304 4,900 -540 Descending Albuquerque Center
01:42AM 33.2439 -111.9119 322° Northwest 261 300 4,900  Level Albuquerque Center
01:43AM 33.3014 -111.9639 323° Northwest 260 299 4,900  Level Albuquerque Center
01:44AM 33.3839 -111.9883 346° North 277 319 4,900  Level Albuquerque Center
01:45AM 33.4617 -111.9814 North 280 322 4,900 -660 Level Albuquerque Center
01:46AM 33.5267 -111.9739 North 234 269 3,600 -1,200 Descending Albuquerque Center
01:47AM 33.5769 -111.9614 12° North 182 209 2,600 -960 Descending Albuquerque Center
01:48AM 33.6106 -111.9258 41° Northeast 165 190 1,700 -600 Descending Albuquerque Center
01:49AM 33.6383 -111.8936 44° Northeast 161 185 1,400 -300 Descending Albuquerque Center